createdAt,value
2017-06-06T00:00:26.097Z,984.6
2017-06-06T00:01:26.125Z,984.57
2017-06-06T00:02:26.151Z,984.58
2017-06-06T00:03:26.183Z,984.53
2017-06-06T00:04:26.212Z,984.55
2017-06-06T00:05:26.240Z,984.55
2017-06-06T00:06:26.269Z,984.55
2017-06-06T00:07:26.294Z,984.53
2017-06-06T00:08:26.326Z,984.56
2017-06-06T00:09:26.355Z,984.52
2017-06-06T00:10:26.384Z,984.5
2017-06-06T00:11:26.418Z,984.45
2017-06-06T00:12:26.446Z,984.46
2017-06-06T00:13:26.475Z,984.42
2017-06-06T00:14:26.503Z,984.41
2017-06-06T00:15:26.532Z,984.38
2017-06-06T00:16:26.562Z,984.36
2017-06-06T00:17:26.591Z,984.36
2017-06-06T00:18:26.618Z,984.34
2017-06-06T00:19:26.648Z,984.36
2017-06-06T00:20:26.677Z,984.34
2017-06-06T00:21:26.706Z,984.34
2017-06-06T00:22:26.735Z,984.32
2017-06-06T00:23:26.761Z,984.35
2017-06-06T00:24:26.792Z,984.31
2017-06-06T00:25:26.825Z,984.33
2017-06-06T00:26:26.853Z,984.33
2017-06-06T00:27:26.883Z,984.31
2017-06-06T00:28:26.911Z,984.29
2017-06-06T00:29:26.941Z,984.31
2017-06-06T00:30:26.968Z,984.31
2017-06-06T00:31:26.998Z,984.31
2017-06-06T00:32:27.027Z,984.3
2017-06-06T00:33:27.056Z,984.29
2017-06-06T00:34:27.083Z,984.25
2017-06-06T00:35:27.113Z,984.27
2017-06-06T00:36:27.141Z,984.24
2017-06-06T00:37:27.175Z,984.24
2017-06-06T00:38:27.199Z,984.23
2017-06-06T00:39:27.233Z,984.2
2017-06-06T00:40:27.260Z,984.19
2017-06-06T00:41:27.291Z,984.18
2017-06-06T00:42:27.320Z,984.11
2017-06-06T00:43:27.349Z,984.09
2017-06-06T00:44:27.376Z,984.09
2017-06-06T00:45:27.405Z,984.08
2017-06-06T00:46:27.434Z,984.06
2017-06-06T00:47:27.464Z,984.05
2017-06-06T00:48:27.492Z,984
2017-06-06T00:49:27.520Z,983.97
2017-06-06T00:50:27.551Z,984
2017-06-06T00:51:27.822Z,983.92
2017-06-06T00:52:27.616Z,983.89
2017-06-06T00:53:27.634Z,983.88
2017-06-06T00:54:27.668Z,983.85
2017-06-06T00:55:27.697Z,983.8
2017-06-06T00:56:27.975Z,983.81
2017-06-06T00:57:27.753Z,983.79
2017-06-06T00:58:27.783Z,983.76
2017-06-06T00:59:27.812Z,983.78
2017-06-06T01:00:27.840Z,983.73
2017-06-06T01:01:28.071Z,983.7
2017-06-06T01:02:27.897Z,983.75
2017-06-06T01:03:27.923Z,983.75
2017-06-06T01:04:27.956Z,983.71
2017-06-06T01:05:27.984Z,983.67
2017-06-06T01:06:28.265Z,983.66
2017-06-06T01:07:28.047Z,983.62
2017-06-06T01:08:28.077Z,983.58
2017-06-06T01:09:28.104Z,983.6
2017-06-06T01:10:28.137Z,983.59
2017-06-06T01:11:28.413Z,983.64
2017-06-06T01:12:28.228Z,983.61
2017-06-06T01:13:28.220Z,983.6
2017-06-06T01:14:28.248Z,983.58
2017-06-06T01:15:28.277Z,983.55
2017-06-06T01:16:28.540Z,983.52
2017-06-06T01:17:28.335Z,983.48
2017-06-06T01:18:28.364Z,983.5
2017-06-06T01:19:28.392Z,983.48
2017-06-06T01:20:28.418Z,983.46
2017-06-06T01:21:28.706Z,983.5
2017-06-06T01:22:28.475Z,983.47
2017-06-06T01:23:28.511Z,983.45
2017-06-06T01:24:28.541Z,983.42
2017-06-06T01:25:28.570Z,983.43
2017-06-06T01:26:28.849Z,983.42
2017-06-06T01:27:28.626Z,983.4
2017-06-06T01:28:28.656Z,983.36
2017-06-06T01:29:28.685Z,983.41
2017-06-06T01:30:28.713Z,983.37
2017-06-06T01:31:28.739Z,983.33
2017-06-06T01:32:28.771Z,983.33
2017-06-06T01:33:28.800Z,983.3
2017-06-06T01:34:28.830Z,983.3
2017-06-06T01:35:28.857Z,983.32
2017-06-06T01:36:28.882Z,983.29
2017-06-06T01:37:28.915Z,983.3
2017-06-06T01:38:28.943Z,983.26
2017-06-06T01:39:28.977Z,983.26
2017-06-06T01:40:29.002Z,983.24
2017-06-06T01:41:29.030Z,983.22
2017-06-06T01:42:29.064Z,983.22
2017-06-06T01:43:29.093Z,983.2
2017-06-06T01:44:29.121Z,983.2
2017-06-06T01:45:29.146Z,983.19
2017-06-06T01:46:29.424Z,983.14
2017-06-06T01:47:29.209Z,983.11
2017-06-06T01:48:29.237Z,983.07
2017-06-06T01:49:29.266Z,983.06
2017-06-06T01:50:29.293Z,983.02
2017-06-06T01:51:29.322Z,983.01
2017-06-06T01:52:29.351Z,983.03
2017-06-06T01:53:29.380Z,982.99
2017-06-06T01:54:29.408Z,983
2017-06-06T01:55:29.437Z,982.97
2017-06-06T01:56:29.466Z,982.99
2017-06-06T01:57:29.495Z,982.98
2017-06-06T01:58:29.524Z,982.94
2017-06-06T01:59:29.550Z,982.92
2017-06-06T02:00:29.582Z,982.89
2017-06-06T02:01:29.814Z,982.9
2017-06-06T02:02:29.639Z,982.87
2017-06-06T02:03:29.671Z,982.84
2017-06-06T02:04:29.700Z,982.83
2017-06-06T02:05:29.731Z,982.78
2017-06-06T02:06:29.758Z,982.79
2017-06-06T02:07:29.788Z,982.77
2017-06-06T02:08:29.817Z,982.76
2017-06-06T02:09:29.840Z,982.74
2017-06-06T02:10:29.875Z,982.75
2017-06-06T02:11:30.151Z,982.73
2017-06-06T02:12:29.931Z,982.7
2017-06-06T02:13:29.962Z,982.65
2017-06-06T02:14:29.990Z,982.64
2017-06-06T02:15:30.019Z,982.6
2017-06-06T02:16:30.293Z,982.57
2017-06-06T02:17:30.078Z,982.52
2017-06-06T02:18:30.104Z,982.55
2017-06-06T02:19:30.134Z,982.56
2017-06-06T02:20:30.162Z,982.52
2017-06-06T02:21:30.439Z,982.47
2017-06-06T02:22:30.223Z,982.49
2017-06-06T02:23:30.247Z,982.47
2017-06-06T02:24:30.277Z,982.46
2017-06-06T02:25:30.306Z,982.41
2017-06-06T02:26:30.587Z,982.43
2017-06-06T02:27:30.364Z,982.43
2017-06-06T02:28:30.393Z,982.41
2017-06-06T02:29:30.421Z,982.37
2017-06-06T02:30:30.447Z,982.34
2017-06-06T02:31:30.735Z,982.32
2017-06-06T02:32:30.502Z,982.31
2017-06-06T02:33:30.534Z,982.31
2017-06-06T02:34:30.569Z,982.31
2017-06-06T02:35:30.595Z,982.3
2017-06-06T02:36:30.879Z,982.32
2017-06-06T02:37:30.657Z,982.26
2017-06-06T02:38:30.685Z,982.19
2017-06-06T02:39:30.713Z,982.23
2017-06-06T02:40:30.743Z,982.19
2017-06-06T02:41:31.024Z,982.18
2017-06-06T02:42:30.801Z,982.17
2017-06-06T02:43:30.829Z,982.21
2017-06-06T02:44:30.858Z,982.17
2017-06-06T02:45:30.884Z,982.11
2017-06-06T02:46:31.167Z,982.15
2017-06-06T02:47:30.944Z,982.13
2017-06-06T02:48:30.972Z,982.14
2017-06-06T02:49:30.999Z,982.12
2017-06-06T02:50:31.031Z,982.11
2017-06-06T02:51:31.311Z,982.09
2017-06-06T02:52:31.089Z,982.02
2017-06-06T02:53:31.119Z,982.03
2017-06-06T02:54:31.146Z,982.03
2017-06-06T02:55:31.174Z,982.01
2017-06-06T02:56:31.455Z,982
2017-06-06T02:57:31.234Z,981.96
2017-06-06T02:58:31.261Z,981.97
2017-06-06T02:59:31.285Z,981.95
2017-06-06T03:00:31.320Z,981.96
2017-06-06T03:01:31.600Z,981.96
2017-06-06T03:02:31.375Z,981.96
2017-06-06T03:03:31.405Z,981.94
2017-06-06T03:04:31.433Z,981.95
2017-06-06T03:05:31.462Z,981.89
2017-06-06T03:06:31.744Z,981.86
2017-06-06T03:07:31.520Z,981.85
2017-06-06T03:08:31.550Z,981.87
2017-06-06T03:09:31.576Z,981.84
2017-06-06T03:10:31.602Z,981.83
2017-06-06T03:11:31.887Z,981.84
2017-06-06T03:12:31.663Z,981.84
2017-06-06T03:13:31.689Z,981.77
2017-06-06T03:14:31.724Z,981.74
2017-06-06T03:15:31.747Z,981.72
2017-06-06T03:16:32.032Z,981.74
2017-06-06T03:17:31.808Z,981.68
2017-06-06T03:18:31.837Z,981.69
2017-06-06T03:19:31.866Z,981.64
2017-06-06T03:20:31.895Z,981.67
2017-06-06T03:21:32.175Z,981.63
2017-06-06T03:22:31.957Z,981.64
2017-06-06T03:23:31.981Z,981.64
2017-06-06T03:24:32.010Z,981.62
2017-06-06T03:25:32.041Z,981.61
2017-06-06T03:26:32.318Z,981.57
2017-06-06T03:27:32.096Z,981.54
2017-06-06T03:28:32.125Z,981.57
2017-06-06T03:29:32.158Z,981.58
2017-06-06T03:30:32.183Z,981.56
2017-06-06T03:31:32.417Z,981.53
2017-06-06T03:32:32.240Z,981.5
2017-06-06T03:33:32.274Z,981.45
2017-06-06T03:34:32.295Z,981.43
2017-06-06T03:35:32.327Z,981.43
2017-06-06T03:36:32.611Z,981.42
2017-06-06T03:37:32.385Z,981.42
2017-06-06T03:38:32.414Z,981.39
2017-06-06T03:39:32.442Z,981.4
2017-06-06T03:40:32.469Z,981.36
2017-06-06T03:41:32.748Z,981.38
2017-06-06T03:42:32.526Z,981.37
2017-06-06T03:43:32.557Z,981.37
2017-06-06T03:44:32.592Z,981.32
2017-06-06T03:45:32.615Z,981.31
2017-06-06T03:46:32.893Z,981.33
2017-06-06T03:47:32.677Z,981.31
2017-06-06T03:48:32.697Z,981.33
2017-06-06T03:49:32.731Z,981.39
2017-06-06T03:50:32.760Z,981.36
2017-06-06T03:51:33.041Z,981.38
2017-06-06T03:52:32.817Z,981.37
2017-06-06T03:53:32.841Z,981.3
2017-06-06T03:54:32.874Z,981.29
2017-06-06T03:55:32.903Z,981.31
2017-06-06T03:56:33.184Z,981.33
2017-06-06T03:57:32.961Z,981.3
2017-06-06T03:58:32.985Z,981.26
2017-06-06T03:59:33.018Z,981.33
2017-06-06T04:00:33.048Z,981.31
2017-06-06T04:01:33.328Z,981.31
2017-06-06T04:02:33.105Z,981.31
2017-06-06T04:03:33.134Z,981.29
2017-06-06T04:04:33.163Z,981.28
2017-06-06T04:05:33.192Z,981.29
2017-06-06T04:06:33.471Z,981.22
2017-06-06T04:07:33.250Z,981.22
2017-06-06T04:08:33.278Z,981.22
2017-06-06T04:09:33.307Z,981.21
2017-06-06T04:10:33.335Z,981.21
2017-06-06T04:11:33.612Z,981.2
2017-06-06T04:12:33.394Z,981.25
2017-06-06T04:13:33.422Z,981.2
2017-06-06T04:14:33.451Z,981.19
2017-06-06T04:15:33.479Z,981.18
2017-06-06T04:16:33.761Z,981.14
2017-06-06T04:17:33.537Z,981.07
2017-06-06T04:18:33.566Z,981.08
2017-06-06T04:19:33.594Z,981.06
2017-06-06T04:20:33.627Z,981.04
2017-06-06T04:21:33.903Z,981
2017-06-06T04:22:33.681Z,981.02
2017-06-06T04:23:33.714Z,980.98
2017-06-06T04:24:33.739Z,981.07
2017-06-06T04:25:33.767Z,981.08
2017-06-06T04:26:34.046Z,981.08
2017-06-06T04:27:33.829Z,981.04
2017-06-06T04:28:33.854Z,981.04
2017-06-06T04:29:33.883Z,981.04
2017-06-06T04:30:33.915Z,981.06
2017-06-06T04:31:34.197Z,981.04
2017-06-06T04:32:33.969Z,981.06
2017-06-06T04:33:33.998Z,981.05
2017-06-06T04:34:34.031Z,981.07
2017-06-06T04:35:34.060Z,981.08
2017-06-06T04:36:34.289Z,981.04
2017-06-06T04:37:34.113Z,980.98
2017-06-06T04:38:34.146Z,980.97
2017-06-06T04:39:34.171Z,981
2017-06-06T04:40:34.200Z,980.97
2017-06-06T04:41:34.480Z,980.92
2017-06-06T04:42:34.261Z,980.93
2017-06-06T04:43:34.286Z,980.98
2017-06-06T04:44:34.315Z,980.92
2017-06-06T04:45:34.344Z,980.9
2017-06-06T04:46:34.627Z,980.92
2017-06-06T04:47:34.402Z,980.89
2017-06-06T04:48:34.433Z,980.87
2017-06-06T04:49:34.463Z,980.86
2017-06-06T04:50:34.488Z,980.87
2017-06-06T04:51:34.767Z,980.84
2017-06-06T04:52:34.549Z,980.85
2017-06-06T04:53:34.577Z,980.84
2017-06-06T04:54:34.603Z,980.82
2017-06-06T04:55:34.632Z,980.82
2017-06-06T04:56:34.917Z,980.78
2017-06-06T04:57:34.694Z,980.82
2017-06-06T04:58:34.717Z,980.79
2017-06-06T04:59:34.751Z,980.76
2017-06-06T05:00:34.780Z,980.74
2017-06-06T05:01:35.055Z,980.76
2017-06-06T05:02:34.833Z,980.77
2017-06-06T05:03:34.865Z,980.9
2017-06-06T05:04:34.895Z,980.91
2017-06-06T05:05:34.920Z,980.95
2017-06-06T05:06:35.204Z,980.94
2017-06-06T05:07:34.980Z,980.84
2017-06-06T05:08:35.010Z,980.74
2017-06-06T05:09:35.037Z,980.82
2017-06-06T05:10:35.068Z,980.92
2017-06-06T05:11:35.297Z,980.92
2017-06-06T05:12:35.121Z,980.9
2017-06-06T05:13:35.151Z,980.92
2017-06-06T05:14:35.183Z,980.88
2017-06-06T05:15:35.212Z,980.91
2017-06-06T05:16:35.490Z,980.89
2017-06-06T05:17:35.270Z,980.9
2017-06-06T05:18:35.299Z,980.92
2017-06-06T05:19:35.328Z,980.96
2017-06-06T05:20:35.356Z,980.97
2017-06-06T05:21:35.633Z,980.95
2017-06-06T05:22:35.412Z,980.94
2017-06-06T05:23:35.444Z,980.96
2017-06-06T05:24:35.467Z,980.95
2017-06-06T05:25:35.499Z,980.92
2017-06-06T05:26:35.779Z,980.99
2017-06-06T05:27:35.558Z,981.07
2017-06-06T05:28:35.587Z,981.11
2017-06-06T05:29:35.613Z,981.16
2017-06-06T05:30:35.644Z,981.15
2017-06-06T05:31:35.919Z,981.17
2017-06-06T05:32:35.702Z,981.17
2017-06-06T05:33:35.730Z,981.21
2017-06-06T05:34:35.759Z,981.18
2017-06-06T05:35:35.785Z,981.16
2017-06-06T05:36:36.070Z,981.15
2017-06-06T05:37:35.841Z,981.15
2017-06-06T05:38:35.874Z,981.2
2017-06-06T05:39:35.903Z,981.25
2017-06-06T05:40:35.927Z,981.24
2017-06-06T05:41:36.208Z,981.28
2017-06-06T05:42:35.989Z,981.25
2017-06-06T05:43:36.018Z,981.31
2017-06-06T05:44:36.047Z,981.28
2017-06-06T05:45:36.076Z,981.28
2017-06-06T05:46:36.356Z,981.34
2017-06-06T05:47:36.133Z,981.33
2017-06-06T05:48:36.162Z,981.41
2017-06-06T05:49:36.191Z,981.37
2017-06-06T05:50:36.221Z,981.39
2017-06-06T05:51:36.500Z,981.37
2017-06-06T05:52:36.278Z,981.33
2017-06-06T05:53:36.306Z,981.42
2017-06-06T05:54:36.335Z,981.42
2017-06-06T05:55:36.364Z,981.41
2017-06-06T05:56:36.644Z,981.41
2017-06-06T05:57:36.422Z,981.48
2017-06-06T05:58:36.450Z,981.54
2017-06-06T05:59:36.479Z,981.47
2017-06-06T06:00:36.508Z,981.49
2017-06-06T06:01:36.789Z,981.49
2017-06-06T06:02:36.567Z,981.44
2017-06-06T06:03:36.595Z,981.47
2017-06-06T06:04:36.653Z,981.44
2017-06-06T06:05:36.653Z,981.38
2017-06-06T06:06:36.933Z,981.31
2017-06-06T06:07:36.721Z,981.28
2017-06-06T06:08:36.737Z,981.28
2017-06-06T06:09:36.767Z,981.27
2017-06-06T06:10:36.794Z,981.26
2017-06-06T06:11:37.025Z,981.24
2017-06-06T06:12:36.854Z,981.29
2017-06-06T06:13:36.883Z,981.33
2017-06-06T06:14:36.911Z,981.32
2017-06-06T06:15:36.936Z,981.33
2017-06-06T06:16:37.221Z,981.35
2017-06-06T06:17:36.997Z,981.33
2017-06-06T06:18:37.027Z,981.31
2017-06-06T06:19:37.055Z,981.32
2017-06-06T06:20:37.085Z,981.27
2017-06-06T06:21:37.364Z,981.29
2017-06-06T06:22:37.144Z,981.27
2017-06-06T06:23:37.169Z,981.26
2017-06-06T06:24:37.200Z,981.23
2017-06-06T06:25:37.230Z,981.21
2017-06-06T06:26:37.456Z,981.21
2017-06-06T06:27:37.286Z,981.24
2017-06-06T06:28:37.313Z,981.22
2017-06-06T06:29:37.340Z,981.2
2017-06-06T06:30:37.372Z,981.17
2017-06-06T06:31:37.652Z,981.18
2017-06-06T06:32:37.429Z,981.16
2017-06-06T06:33:37.458Z,981.12
2017-06-06T06:34:37.483Z,981.11
2017-06-06T06:35:37.516Z,981.11
2017-06-06T06:36:37.545Z,981.07
2017-06-06T06:37:37.574Z,981.04
2017-06-06T06:38:37.602Z,981.04
2017-06-06T06:39:37.627Z,980.99
2017-06-06T06:40:37.661Z,981.03
2017-06-06T06:41:37.688Z,981.02
2017-06-06T06:42:37.718Z,981.1
2017-06-06T06:43:37.747Z,981.02
2017-06-06T06:44:37.776Z,981.04
2017-06-06T06:45:37.804Z,981.05
2017-06-06T06:46:37.832Z,981.02
2017-06-06T06:47:37.861Z,981.03
2017-06-06T06:48:37.891Z,981.03
2017-06-06T06:49:37.920Z,981.04
2017-06-06T06:50:37.949Z,981.01
2017-06-06T06:51:37.978Z,981.01
2017-06-06T06:52:38.006Z,981.09
2017-06-06T06:53:38.035Z,980.99
2017-06-06T06:54:38.069Z,981
2017-06-06T06:55:38.093Z,981.01
2017-06-06T06:56:38.125Z,981.06
2017-06-06T06:57:38.151Z,980.99
2017-06-06T06:58:38.183Z,980.94
2017-06-06T06:59:38.218Z,981.01
2017-06-06T07:00:38.236Z,981.02
2017-06-06T07:01:38.268Z,980.95
2017-06-06T07:02:38.293Z,981.03
2017-06-06T07:03:38.323Z,980.98
2017-06-06T07:04:38.356Z,980.96
2017-06-06T07:05:38.384Z,980.99
2017-06-06T07:06:38.405Z,981
2017-06-06T07:07:38.438Z,980.96
2017-06-06T07:08:38.473Z,980.99
2017-06-06T07:09:38.496Z,981.01
2017-06-06T07:10:38.528Z,981.05
2017-06-06T07:11:38.556Z,981.04
2017-06-06T07:12:38.580Z,981.03
2017-06-06T07:13:38.606Z,981.01
2017-06-06T07:14:38.643Z,980.9
2017-06-06T07:15:38.669Z,980.93
2017-06-06T07:16:38.702Z,980.94
2017-06-06T07:17:38.729Z,980.91
2017-06-06T07:18:38.763Z,980.82
2017-06-06T07:19:38.791Z,980.76
2017-06-06T07:20:38.816Z,980.79
2017-06-06T07:21:38.845Z,980.77
2017-06-06T07:22:38.875Z,980.82
2017-06-06T07:23:38.902Z,980.81
2017-06-06T07:24:38.931Z,980.84
2017-06-06T07:25:38.961Z,980.85
2017-06-06T07:26:38.990Z,980.85
2017-06-06T07:27:39.018Z,980.81
2017-06-06T07:28:39.048Z,980.86
2017-06-06T07:29:39.075Z,980.81
2017-06-06T07:30:39.104Z,980.76
2017-06-06T07:31:39.133Z,980.85
2017-06-06T07:32:39.162Z,980.81
2017-06-06T07:33:39.190Z,980.85
2017-06-06T07:34:39.219Z,980.89
2017-06-06T07:35:39.248Z,980.87
2017-06-06T07:36:39.278Z,980.9
2017-06-06T07:37:39.310Z,980.89
2017-06-06T07:38:39.334Z,980.91
2017-06-06T07:39:39.363Z,980.94
2017-06-06T07:40:39.391Z,980.97
2017-06-06T07:41:39.420Z,980.99
2017-06-06T07:42:39.450Z,981
2017-06-06T07:43:39.478Z,980.9
2017-06-06T07:44:39.506Z,980.98
2017-06-06T07:45:39.536Z,980.92
2017-06-06T07:46:39.565Z,980.96
2017-06-06T07:47:39.594Z,980.95
2017-06-06T07:48:39.621Z,980.97
2017-06-06T07:49:39.652Z,980.96
2017-06-06T07:50:39.680Z,981.04
2017-06-06T07:51:39.709Z,980.96
2017-06-06T07:52:39.737Z,981.06
2017-06-06T07:53:39.766Z,981.05
2017-06-06T07:54:39.791Z,981.01
2017-06-06T07:55:39.824Z,980.99
2017-06-06T07:56:39.853Z,980.93
2017-06-06T07:57:39.881Z,980.92
2017-06-06T07:58:39.909Z,981.03
2017-06-06T07:59:39.939Z,981.03
2017-06-06T08:00:39.968Z,981.01
2017-06-06T08:01:39.990Z,980.99
2017-06-06T08:02:40.025Z,981.08
2017-06-06T08:03:40.051Z,980.98
2017-06-06T08:04:40.076Z,981.08
2017-06-06T08:05:40.109Z,981.06
2017-06-06T08:06:40.141Z,981.02
2017-06-06T08:07:40.170Z,981.11
2017-06-06T08:08:40.195Z,981.04
2017-06-06T08:09:40.224Z,981.1
2017-06-06T08:10:40.252Z,981.14
2017-06-06T08:11:40.281Z,981.19
2017-06-06T08:12:40.309Z,981.07
2017-06-06T08:13:40.339Z,981.14
2017-06-06T08:14:40.367Z,981.13
2017-06-06T08:15:40.396Z,981.11
2017-06-06T08:16:40.426Z,981.17
2017-06-06T08:17:40.458Z,981.05
2017-06-06T08:18:40.479Z,981.11
2017-06-06T08:19:40.512Z,981.16
2017-06-06T08:20:40.539Z,981.08
2017-06-06T08:21:40.569Z,981.16
2017-06-06T08:22:40.599Z,981.2
2017-06-06T08:23:40.623Z,981.15
2017-06-06T08:24:40.655Z,981.2
2017-06-06T08:25:40.684Z,981.27
2017-06-06T08:26:40.713Z,981.15
2017-06-06T08:27:40.741Z,981.2
2017-06-06T08:28:40.770Z,981.16
2017-06-06T08:29:40.800Z,981.18
2017-06-06T08:30:40.826Z,981.22
2017-06-06T08:31:40.852Z,981.15
2017-06-06T08:32:40.882Z,981.16
2017-06-06T08:33:40.910Z,981.21
2017-06-06T08:34:40.939Z,981.22
2017-06-06T08:35:40.968Z,981.19
2017-06-06T08:36:40.997Z,981.2
2017-06-06T08:37:41.026Z,981.11
2017-06-06T08:38:41.055Z,981.08
2017-06-06T08:39:41.085Z,981.2
2017-06-06T08:40:41.113Z,981.16
2017-06-06T08:41:41.142Z,981.16
2017-06-06T08:42:41.170Z,981.19
2017-06-06T08:43:41.199Z,981.1
2017-06-06T08:44:41.232Z,981.24
2017-06-06T08:45:41.256Z,981.21
2017-06-06T08:46:41.290Z,981.22
2017-06-06T08:47:41.313Z,981.16
2017-06-06T08:48:41.338Z,981.16
2017-06-06T08:49:41.372Z,981.14
2017-06-06T08:50:41.399Z,981.17
2017-06-06T08:51:41.430Z,981.18
2017-06-06T08:52:41.453Z,981.18
2017-06-06T08:53:41.482Z,981.15
2017-06-06T08:54:41.512Z,981.17
2017-06-06T08:55:41.540Z,981.21
2017-06-06T08:56:41.569Z,981.24
2017-06-06T08:57:41.593Z,981.16
2017-06-06T08:58:41.626Z,981.26
2017-06-06T08:59:41.655Z,981.2
2017-06-06T09:00:41.684Z,981.26
2017-06-06T09:01:41.709Z,981.26
2017-06-06T09:02:41.741Z,981.27
2017-06-06T09:03:41.771Z,981.16
2017-06-06T09:04:41.798Z,981.23
2017-06-06T09:05:41.827Z,981.22
2017-06-06T09:06:41.851Z,981.2
2017-06-06T09:07:41.885Z,981.2
2017-06-06T09:08:41.914Z,981.12
2017-06-06T09:09:41.944Z,981.13
2017-06-06T09:10:41.972Z,981.09
2017-06-06T09:11:42.000Z,981.09
2017-06-06T09:12:42.029Z,981.1
2017-06-06T09:13:42.057Z,981.09
2017-06-06T09:14:42.087Z,981.15
2017-06-06T09:15:42.116Z,981.15
2017-06-06T09:16:42.144Z,981.08
2017-06-06T09:17:42.171Z,981.09
2017-06-06T09:18:42.201Z,981.06
2017-06-06T09:19:42.227Z,981.15
2017-06-06T09:20:42.256Z,981.22
2017-06-06T09:21:42.289Z,981.2
2017-06-06T09:22:42.318Z,981.13
2017-06-06T09:23:42.347Z,981.18
2017-06-06T09:24:42.374Z,981.24
2017-06-06T09:25:42.399Z,981.24
2017-06-06T09:26:42.432Z,981.22
2017-06-06T09:27:42.459Z,981.19
2017-06-06T09:28:42.489Z,981.26
2017-06-06T09:29:42.518Z,981.21
2017-06-06T09:30:42.547Z,981.23
2017-06-06T09:31:42.576Z,981.23
2017-06-06T09:32:42.605Z,981.3
2017-06-06T09:33:42.631Z,981.22
2017-06-06T09:34:42.663Z,981.28
2017-06-06T09:35:42.692Z,981.23
2017-06-06T09:36:42.721Z,981.24
2017-06-06T09:37:42.750Z,981.32
2017-06-06T09:38:42.779Z,981.29
2017-06-06T09:39:42.803Z,981.35
2017-06-06T09:40:42.836Z,981.39
2017-06-06T09:41:42.866Z,981.31
2017-06-06T09:42:42.894Z,981.47
2017-06-06T09:43:42.922Z,981.5
2017-06-06T09:44:42.948Z,981.42
2017-06-06T09:45:42.980Z,981.53
2017-06-06T09:46:43.005Z,981.51
2017-06-06T09:47:43.038Z,981.52
2017-06-06T09:48:43.066Z,981.54
2017-06-06T09:49:43.095Z,981.54
2017-06-06T09:50:43.120Z,981.58
2017-06-06T09:51:43.153Z,981.52
2017-06-06T09:52:43.181Z,981.48
2017-06-06T09:53:43.210Z,981.53
2017-06-06T09:54:43.233Z,981.61
2017-06-06T09:55:43.267Z,981.57
2017-06-06T09:56:43.295Z,981.66
2017-06-06T09:57:43.319Z,981.79
2017-06-06T09:58:43.350Z,981.71
2017-06-06T09:59:43.382Z,981.8
2017-06-06T10:00:43.411Z,981.86
2017-06-06T10:01:43.435Z,981.77
2017-06-06T10:02:43.465Z,981.81
2017-06-06T10:03:43.498Z,981.76
2017-06-06T10:04:43.526Z,981.76
2017-06-06T10:05:43.551Z,981.76
2017-06-06T10:06:43.579Z,981.83
2017-06-06T10:07:43.614Z,981.76
2017-06-06T10:08:43.637Z,981.82
2017-06-06T10:09:43.666Z,981.84
2017-06-06T10:10:43.695Z,981.91
2017-06-06T10:11:43.727Z,981.78
2017-06-06T10:12:43.754Z,981.96
2017-06-06T10:13:43.783Z,981.98
2017-06-06T10:14:43.810Z,981.91
2017-06-06T10:15:43.843Z,981.98
2017-06-06T10:16:43.863Z,981.97
2017-06-06T10:17:44.149Z,981.94
2017-06-06T10:18:43.926Z,981.99
2017-06-06T10:19:43.954Z,982.06
2017-06-06T10:20:43.983Z,982.01
2017-06-06T10:21:44.012Z,982.02
2017-06-06T10:22:44.298Z,982
2017-06-06T10:23:44.070Z,982
2017-06-06T10:24:44.099Z,982.08
2017-06-06T10:25:44.131Z,982.12
2017-06-06T10:26:44.160Z,982.26
2017-06-06T10:27:44.435Z,982.21
2017-06-06T10:28:44.217Z,982.3
2017-06-06T10:29:44.246Z,982.19
2017-06-06T10:30:44.272Z,982.21
2017-06-06T10:31:44.312Z,982.24
2017-06-06T10:32:44.584Z,982.27
2017-06-06T10:33:44.358Z,982.3
2017-06-06T10:34:44.390Z,982.4
2017-06-06T10:35:44.420Z,982.34
2017-06-06T10:36:44.448Z,982.32
2017-06-06T10:37:44.727Z,982.27
2017-06-06T10:38:44.505Z,982.41
2017-06-06T10:39:44.535Z,982.35
2017-06-06T10:40:44.562Z,982.43
2017-06-06T10:41:44.591Z,982.44
2017-06-06T10:42:44.623Z,982.42
2017-06-06T10:43:44.649Z,982.54
2017-06-06T10:44:44.681Z,982.53
2017-06-06T10:45:44.707Z,982.52
2017-06-06T10:46:44.739Z,982.53
2017-06-06T10:47:44.767Z,982.59
2017-06-06T10:48:44.795Z,982.54
2017-06-06T10:49:44.825Z,982.6
2017-06-06T10:50:44.855Z,982.67
2017-06-06T10:51:44.884Z,982.67
2017-06-06T10:52:44.912Z,982.67
2017-06-06T10:53:44.941Z,982.68
2017-06-06T10:54:44.969Z,982.75
2017-06-06T10:55:44.998Z,982.78
2017-06-06T10:56:45.024Z,982.71
2017-06-06T10:57:45.056Z,982.83
2017-06-06T10:58:45.086Z,982.87
2017-06-06T10:59:45.114Z,982.81
2017-06-06T11:00:45.147Z,982.76
2017-06-06T11:01:45.174Z,982.88
2017-06-06T11:02:45.205Z,982.89
2017-06-06T11:03:45.230Z,982.85
2017-06-06T11:04:45.257Z,983.02
2017-06-06T11:05:45.323Z,982.93
2017-06-06T11:06:45.319Z,982.89
2017-06-06T11:07:45.349Z,982.92
2017-06-06T11:08:45.378Z,982.83
2017-06-06T11:09:45.406Z,982.86
2017-06-06T11:10:45.435Z,982.91
2017-06-06T11:11:45.464Z,982.92
2017-06-06T11:12:45.491Z,982.84
2017-06-06T11:13:45.521Z,982.98
2017-06-06T11:14:45.547Z,982.95
2017-06-06T11:15:45.583Z,983.05
2017-06-06T11:16:45.611Z,983.08
2017-06-06T11:17:45.638Z,983.11
2017-06-06T11:18:45.665Z,983.05
2017-06-06T11:19:45.697Z,983.11
2017-06-06T11:20:45.726Z,983.27
2017-06-06T11:21:45.755Z,983.37
2017-06-06T11:22:45.784Z,983.21
2017-06-06T11:23:45.808Z,983.24
2017-06-06T11:24:45.842Z,983.38
2017-06-06T11:25:45.863Z,983.31
2017-06-06T11:26:45.900Z,983.37
2017-06-06T11:27:45.930Z,983.32
2017-06-06T11:28:45.961Z,983.27
2017-06-06T11:29:45.990Z,983.29
2017-06-06T11:30:46.012Z,983.39
2017-06-06T11:31:46.047Z,983.44
2017-06-06T11:32:46.074Z,983.4
2017-06-06T11:33:46.105Z,983.52
2017-06-06T11:34:46.134Z,983.45
2017-06-06T11:35:46.162Z,983.39
2017-06-06T11:36:46.195Z,983.52
2017-06-06T11:37:46.224Z,983.45
2017-06-06T11:38:46.251Z,983.46
2017-06-06T11:39:46.282Z,983.5
2017-06-06T11:40:46.311Z,983.55
2017-06-06T11:41:46.344Z,983.56
2017-06-06T11:42:46.372Z,983.54
2017-06-06T11:43:46.645Z,983.58
2017-06-06T11:44:46.430Z,983.6
2017-06-06T11:45:46.461Z,983.7
2017-06-06T11:46:46.491Z,983.63
2017-06-06T11:47:46.520Z,983.51
2017-06-06T11:48:46.548Z,983.63
2017-06-06T11:49:46.576Z,983.54
2017-06-06T11:50:46.609Z,983.67
2017-06-06T11:51:46.638Z,983.48
2017-06-06T11:52:46.668Z,983.6
2017-06-06T11:53:46.696Z,983.53
2017-06-06T11:54:46.730Z,983.65
2017-06-06T11:55:46.753Z,983.65
2017-06-06T11:56:46.787Z,983.55
2017-06-06T11:57:46.819Z,983.59
2017-06-06T11:58:46.849Z,983.54
2017-06-06T11:59:46.883Z,983.59
2017-06-06T12:00:46.910Z,983.56
2017-06-06T12:01:46.939Z,983.51
2017-06-06T12:02:46.973Z,983.49
2017-06-06T12:03:47.000Z,983.51
2017-06-06T12:04:47.034Z,983.59
2017-06-06T12:05:47.062Z,983.55
2017-06-06T12:06:47.090Z,983.59
2017-06-06T12:07:47.124Z,983.56
2017-06-06T12:08:47.153Z,983.64
2017-06-06T12:09:47.185Z,983.87
2017-06-06T12:10:47.214Z,983.8
2017-06-06T12:11:47.248Z,983.88
2017-06-06T12:12:47.276Z,983.72
2017-06-06T12:13:47.310Z,983.73
2017-06-06T12:14:47.336Z,983.71
2017-06-06T12:15:47.366Z,983.72
2017-06-06T12:16:47.398Z,983.83
2017-06-06T12:17:47.423Z,983.79
2017-06-06T12:18:47.462Z,983.73
2017-06-06T12:19:47.489Z,983.68
2017-06-06T12:20:47.518Z,983.88
2017-06-06T12:21:47.551Z,983.95
2017-06-06T12:22:47.576Z,983.94
2017-06-06T12:23:47.614Z,983.96
2017-06-06T12:24:47.642Z,983.89
2017-06-06T12:25:47.674Z,983.86
2017-06-06T12:26:47.703Z,983.91
2017-06-06T12:27:47.735Z,983.78
2017-06-06T12:28:47.767Z,983.84
2017-06-06T12:29:47.797Z,983.91
2017-06-06T12:30:47.826Z,983.86
2017-06-06T12:31:47.855Z,983.84